createdAt,value
2022-12-18T00:03:19.932Z,23.75
2022-12-18T00:08:21.793Z,23.83
2022-12-18T00:13:23.522Z,22.63
2022-12-18T00:18:25.310Z,22.10
2022-12-18T00:23:27.268Z,23.45
2022-12-18T00:28:28.987Z,22.42
2022-12-18T00:33:31.628Z,22.55
2022-12-18T00:38:34.858Z,22.95
2022-12-18T00:43:38.000Z,22.02
2022-12-18T00:48:40.079Z,25.10
2022-12-18T00:53:42.309Z,26.33
2022-12-18T00:58:44.012Z,24.13
2022-12-18T01:03:49.183Z,22.42
2022-12-18T01:08:51.734Z,24.60
2022-12-18T01:13:55.020Z,22.38
2022-12-18T01:18:57.558Z,21.33
2022-12-18T01:23:59.309Z,21.20
2022-12-18T01:29:01.098Z,20.33
2022-12-18T01:34:05.981Z,21.00
2022-12-18T01:39:15.072Z,21.98
2022-12-18T01:44:48.273Z,20.60
2022-12-18T01:49:50.632Z,19.55
2022-12-18T01:54:54.102Z,22.60
2022-12-18T02:00:04.570Z,21.52
2022-12-18T02:05:34.999Z,19.10
2022-12-18T02:10:45.531Z,20.48
2022-12-18T02:16:18.156Z,18.90
2022-12-18T02:21:33.924Z,18.38
2022-12-18T02:26:41.745Z,17.97
2022-12-18T02:31:50.064Z,19.35
2022-12-18T02:36:54.242Z,19.17
2022-12-18T02:41:56.366Z,17.42
2022-12-18T02:46:59.908Z,18.58
2022-12-18T02:52:20.602Z,17.08
2022-12-18T02:57:58.040Z,16.67
2022-12-18T03:03:11.547Z,16.58
2022-12-18T03:08:16.580Z,16.58
2022-12-18T03:13:32.755Z,15.45
2022-12-18T03:18:44.659Z,15.65
2022-12-18T03:23:50.956Z,15.70
2022-12-18T03:29:05.810Z,15.63
2022-12-18T03:34:22.328Z,14.07
2022-12-18T03:39:24.721Z,13.77
2022-12-18T03:44:41.536Z,13.18
2022-12-18T03:49:59.018Z,12.43
2022-12-18T03:55:08.298Z,12.57
2022-12-18T04:00:17.787Z,12.57
2022-12-18T04:05:34.933Z,12.23
2022-12-18T04:10:38.033Z,10.32
2022-12-18T04:15:40.658Z,11.55
2022-12-18T04:20:46.488Z,10.98
2022-12-18T04:25:48.596Z,10.45
2022-12-18T04:30:57.685Z,9.73
2022-12-18T04:35:59.451Z,9.50
2022-12-18T04:41:01.901Z,9.25
2022-12-18T04:46:06.487Z,8.50
2022-12-18T04:51:08.638Z,8.52
2022-12-18T04:56:13.048Z,8.10
2022-12-18T05:01:18.993Z,8.70
2022-12-18T05:06:20.706Z,7.68
2022-12-18T05:11:22.658Z,8.55
2022-12-18T05:16:24.332Z,8.52
2022-12-18T05:21:26.333Z,7.50
2022-12-18T05:26:28.103Z,7.85
2022-12-18T05:31:33.406Z,7.80
2022-12-18T05:36:37.654Z,7.68
2022-12-18T05:41:39.480Z,7.60
2022-12-18T05:46:41.394Z,7.38
2022-12-18T05:51:43.171Z,8.65
2022-12-18T05:56:48.659Z,8.77
2022-12-18T06:01:51.037Z,8.00
2022-12-18T06:06:52.801Z,8.18
2022-12-18T06:11:54.783Z,7.45
2022-12-18T06:16:56.496Z,7.32
2022-12-18T06:21:59.883Z,7.07
2022-12-18T06:27:01.538Z,8.20
2022-12-18T06:32:03.508Z,8.38
2022-12-18T06:37:05.500Z,6.95
2022-12-18T06:42:07.202Z,7.82
2022-12-18T06:47:08.874Z,8.20
2022-12-18T06:52:10.732Z,8.18
2022-12-18T06:57:12.598Z,8.18
2022-12-18T07:02:15.166Z,8.63
2022-12-18T07:07:17.066Z,9.27
2022-12-18T07:12:19.174Z,8.88
2022-12-18T07:17:20.878Z,9.85
2022-12-18T07:22:22.753Z,9.68
2022-12-18T07:27:24.632Z,10.18
2022-12-18T07:32:26.363Z,11.27
2022-12-18T07:37:28.125Z,10.02
2022-12-18T07:42:32.484Z,10.77
2022-12-18T07:47:37.517Z,10.27
2022-12-18T07:52:39.298Z,9.65
2022-12-18T07:57:50.471Z,10.93
2022-12-18T08:02:53.370Z,12.10
2022-12-18T08:07:56.016Z,11.90
2022-12-18T08:13:03.133Z,14.00
2022-12-18T08:18:11.334Z,13.55
2022-12-18T08:23:16.492Z,14.70
2022-12-18T08:28:18.642Z,15.40
2022-12-18T08:33:20.274Z,16.80
2022-12-18T08:38:22.198Z,17.35
2022-12-18T08:43:42.453Z,18.05
2022-12-18T08:48:44.794Z,16.55
2022-12-18T08:53:47.150Z,19.80
2022-12-18T08:58:51.833Z,18.60
2022-12-18T09:03:53.717Z,19.00
2022-12-18T09:08:55.346Z,18.75
2022-12-18T09:13:58.198Z,20.77
2022-12-18T09:19:00.973Z,19.75
2022-12-18T09:24:02.948Z,19.13
2022-12-18T09:29:05.426Z,20.67
2022-12-18T09:34:07.410Z,23.08
2022-12-18T09:39:09.239Z,22.90
2022-12-18T09:44:38.893Z,23.92
2022-12-18T09:49:53.084Z,22.08
2022-12-18T09:55:01.860Z,24.17
2022-12-18T10:00:15.402Z,22.02
2022-12-18T10:05:21.750Z,23.50
2022-12-18T10:10:47.987Z,24.23
2022-12-18T10:16:30.812Z,26.55
2022-12-18T10:21:52.482Z,26.30
2022-12-18T10:27:00.644Z,25.95
2022-12-18T10:32:02.315Z,24.48
2022-12-18T10:37:15.212Z,27.00
2022-12-18T10:42:20.715Z,27.83
2022-12-18T10:47:22.454Z,26.48
2022-12-18T10:52:26.845Z,26.92
2022-12-18T10:57:35.221Z,29.00
2022-12-18T11:02:39.049Z,27.08
2022-12-18T11:07:51.398Z,23.00
2022-12-18T11:12:53.220Z,21.83
2022-12-18T11:17:54.968Z,21.33
2022-12-18T11:23:02.790Z,23.88
2022-12-18T11:28:36.815Z,20.98
2022-12-18T11:33:58.503Z,24.15
2022-12-18T11:39:16.616Z,25.03
2022-12-18T11:44:28.019Z,23.75
2022-12-18T11:49:37.145Z,24.80
2022-12-18T11:54:38.778Z,23.27
2022-12-18T12:00:12.192Z,23.27
2022-12-18T12:05:31.968Z,24.17
2022-12-18T12:16:29.229Z,24.55
2022-12-18T12:21:43.996Z,24.45
2022-12-18T12:27:03.928Z,22.67
2022-12-18T12:32:14.200Z,23.42
2022-12-18T12:37:40.024Z,21.80
2022-12-18T12:43:10.865Z,23.45
2022-12-18T12:48:20.902Z,24.00
2022-12-18T12:53:30.245Z,23.73
2022-12-18T12:58:46.404Z,23.02
2022-12-18T13:04:29.838Z,22.50
2022-12-18T13:09:36.800Z,23.38
2022-12-18T13:14:42.029Z,23.30
2022-12-18T13:19:44.358Z,22.60
2022-12-18T13:24:46.201Z,22.35
2022-12-18T13:29:48.238Z,24.35
2022-12-18T13:35:10.144Z,23.00
2022-12-18T13:40:48.333Z,22.67
2022-12-18T13:46:25.983Z,22.50
2022-12-18T13:51:29.586Z,23.00
2022-12-18T13:56:34.264Z,24.05
2022-12-18T14:01:36.109Z,24.23
2022-12-18T14:06:38.444Z,23.92
2022-12-18T14:11:40.136Z,22.17
2022-12-18T14:16:42.545Z,23.02
2022-12-18T14:21:51.616Z,22.75
2022-12-18T14:26:53.320Z,22.73
2022-12-18T14:32:17.908Z,22.40
2022-12-18T14:37:25.935Z,21.95
2022-12-18T14:42:29.376Z,20.63
2022-12-18T14:47:31.272Z,22.73
2022-12-18T14:52:33.113Z,21.02
2022-12-18T14:57:38.913Z,20.52
2022-12-18T15:02:41.155Z,20.77
2022-12-18T15:07:45.741Z,20.88
2022-12-18T15:13:07.536Z,21.42
2022-12-18T15:18:09.625Z,21.52
2022-12-18T15:23:20.229Z,20.25
2022-12-18T15:28:30.155Z,20.60
2022-12-18T15:33:35.050Z,21.33
2022-12-18T15:38:36.884Z,20.08
2022-12-18T15:43:39.378Z,22.73
2022-12-18T15:48:43.925Z,21.42
2022-12-18T15:53:46.354Z,22.08
2022-12-18T15:58:48.222Z,20.52
2022-12-18T16:03:50.023Z,22.05
2022-12-18T16:08:52.170Z,38.42
2022-12-18T16:13:53.890Z,23.98
2022-12-18T16:18:55.606Z,22.65
2022-12-18T16:23:57.300Z,23.80
2022-12-18T16:28:59.557Z,23.00
2022-12-18T16:34:26.048Z,22.52
2022-12-18T16:39:31.803Z,21.63
2022-12-18T16:44:36.969Z,23.05
2022-12-18T16:49:39.556Z,22.92
2022-12-18T16:54:41.367Z,22.58
2022-12-18T16:59:43.384Z,21.90
2022-12-18T17:04:46.752Z,23.95
2022-12-18T17:09:50.666Z,22.17
2022-12-18T17:14:52.658Z,22.38
2022-12-18T17:19:54.502Z,24.13
2022-12-18T17:24:59.053Z,23.63
2022-12-18T17:30:00.935Z,22.33
2022-12-18T17:35:06.904Z,22.88
2022-12-18T17:40:10.650Z,22.85
2022-12-18T17:45:12.375Z,22.75
2022-12-18T17:50:14.349Z,22.40
2022-12-18T17:55:16.199Z,21.73
2022-12-18T18:00:18.797Z,21.42
2022-12-18T18:05:20.828Z,22.60
2022-12-18T18:10:23.606Z,24.20
2022-12-18T18:15:25.504Z,23.08
2022-12-18T18:20:30.376Z,21.70
2022-12-18T18:25:37.858Z,23.40
2022-12-18T18:30:40.009Z,23.27
2022-12-18T18:35:58.872Z,21.13
2022-12-18T18:41:02.624Z,21.15
2022-12-18T18:46:06.224Z,20.55
2022-12-18T18:51:11.319Z,19.13
2022-12-18T18:56:56.360Z,18.57
2022-12-18T19:01:38.673Z,18.48
2022-12-18T19:06:40.552Z,17.38
2022-12-18T19:12:01.866Z,19.23
2022-12-18T19:17:04.784Z,18.48
2022-12-18T19:22:07.614Z,18.58
2022-12-18T19:27:09.691Z,18.63
2022-12-18T19:32:11.568Z,16.98
2022-12-18T19:37:14.096Z,19.23
2022-12-18T19:42:20.097Z,19.95
2022-12-18T19:47:25.482Z,19.15
2022-12-18T19:52:27.421Z,18.30
2022-12-18T19:57:29.230Z,18.92
2022-12-18T20:02:31.448Z,19.10
2022-12-18T20:07:33.717Z,20.05
2022-12-18T20:12:35.635Z,18.90
2022-12-18T20:17:39.965Z,19.10
2022-12-18T20:22:45.310Z,17.75
2022-12-18T20:27:47.123Z,18.95
2022-12-18T20:32:48.872Z,20.23
2022-12-18T20:37:50.828Z,18.23
2022-12-18T20:42:53.473Z,19.55
2022-12-18T20:47:59.423Z,18.67
2022-12-18T20:53:01.167Z,20.38
2022-12-18T20:58:02.819Z,19.48
2022-12-18T21:03:04.871Z,18.23
2022-12-18T21:08:06.774Z,20.00
2022-12-18T21:13:08.730Z,19.23
2022-12-18T21:18:11.858Z,19.35
2022-12-18T21:23:16.512Z,17.90
2022-12-18T21:28:18.652Z,19.35
2022-12-18T21:33:20.354Z,17.42
2022-12-18T21:38:22.050Z,17.92
2022-12-18T21:43:42.605Z,18.90
2022-12-18T21:48:44.393Z,19.95
2022-12-18T21:53:46.092Z,19.00
2022-12-18T21:58:56.924Z,20.42
2022-12-18T22:03:59.769Z,20.00
2022-12-18T22:09:01.443Z,21.27
2022-12-18T22:14:03.206Z,22.80
2022-12-18T22:19:08.121Z,20.45
2022-12-18T22:24:24.192Z,22.75
2022-12-18T22:29:44.543Z,21.77
2022-12-18T22:34:47.411Z,24.02
2022-12-18T22:39:49.058Z,23.40
2022-12-18T22:44:50.754Z,23.25
2022-12-18T22:49:52.410Z,25.65
2022-12-18T22:54:54.529Z,22.30
2022-12-18T22:59:56.302Z,24.92
2022-12-18T23:04:57.989Z,24.63
2022-12-18T23:10:00.929Z,23.23
2022-12-18T23:15:04.304Z,24.48
2022-12-18T23:20:06.449Z,25.48
2022-12-18T23:25:10.993Z,24.98
2022-12-18T23:30:13.038Z,24.80
2022-12-18T23:35:15.731Z,25.15
2022-12-18T23:40:18.131Z,27.80
2022-12-18T23:45:19.786Z,26.40
2022-12-18T23:50:25.418Z,26.90
2022-12-18T23:55:31.621Z,25.20
